< < Back
Terminal Aerodrome Forecast


Current Version              Previous Versions:   1  2  3  4  5  6  7  8  9  

Terminal Aerodrome Forecast

674
FTUS42 KJAX 200500
TAFJAX
TAF
KJAX 200520Z 2006/2106 06003KT P6SM SCT030
     FM201400 07008KT P6SM BKN035
     FM202300 08004KT P6SM SCT030 BKN250=



Latest METAR

167
SAUS80 KWBC 201800
MTRJAX
METAR KJAX 201756Z 13007KT 10SM BKN040 BKN070 26/18 A3001 RMK AO2 SLP163
T02610178 10272 20144 58027


USA.gov is the U.S. government's official web portal to all federal, state and local government web resources and services.